Time;durP1;ratioP1;P1;durP2;ratioP2;P2;SDS_P1;SDS_P2;PMS_P1;PMS_P2;Temp;Humidity;BMP_temperature;BMP_pressure;BME280_temperature;BME280_humidity;BME280_pressure;Samples;Min_cycle;Max_cycle;Signal;HPM_P1;HPM_P2
2022/05/12 00:01:45;;;;;;;15.55;6.65;;;17.20;99.90;;;15.28;100.00;100231.59;4941370;29;20036;-84
2022/05/12 00:04:15;;;;;;;17.63;7.38;;;17.20;99.90;;;15.35;100.00;100237.84;4951257;29;20058;-84
2022/05/12 00:06:44;;;;;;;20.98;8.02;;;17.20;99.90;;;15.29;100.00;100235.16;4941911;29;20126;-84
2022/05/12 00:09:12;;;;;;;17.92;7.95;;;17.20;99.90;;;15.32;100.00;100240.22;4951180;28;20055;-84
2022/05/12 00:11:39;;;;;;;19.20;9.05;;;17.20;99.90;;;15.29;100.00;100248.88;4951548;29;20051;-85
2022/05/12 00:14:06;;;;;;;19.15;9.45;;;17.20;99.90;;;15.19;100.00;100254.84;4945754;28;20054;-85
2022/05/12 00:16:34;;;;;;;15.55;8.70;;;17.20;99.90;;;15.20;100.00;100249.16;4941194;29;20098;-84
2022/05/12 00:19:03;;;;;;;19.83;8.70;;;17.20;99.90;;;15.21;100.00;100253.56;4945786;28;20040;-85
2022/05/12 00:21:30;;;;;;;21.45;9.75;;;17.20;99.90;;;15.24;100.00;100258.59;4963646;28;20397;-84
2022/05/12 00:23:58;;;;;;;16.52;8.27;;;17.20;99.90;;;15.23;100.00;100259.69;4944511;28;20043;-84
2022/05/12 00:26:26;;;;;;;14.68;7.97;;;17.20;99.90;;;15.23;100.00;100275.25;4951282;28;20078;-85
2022/05/12 00:28:55;;;;;;;19.83;8.27;;;17.20;99.90;;;15.22;100.00;100271.69;4962157;28;20054;-84
2022/05/12 00:31:23;;;;;;;15.63;7.53;;;17.10;99.90;;;15.28;100.00;100280.09;4949294;29;20043;-84
2022/05/12 00:33:50;;;;;;;13.63;7.10;;;17.10;99.90;;;15.31;100.00;100266.78;4951328;28;20106;-85
2022/05/12 00:36:20;;;;;;;13.82;6.88;;;17.10;99.90;;;15.24;100.00;100263.25;4949894;28;20059;-84
2022/05/12 00:38:47;;;;;;;12.10;5.88;;;17.10;99.90;;;15.20;100.00;100268.34;4951183;28;20054;-85
2022/05/12 00:41:15;;;;;;;13.45;6.13;;;17.10;99.90;;;15.16;100.00;100277.22;4948942;29;20049;-84
2022/05/12 00:43:46;;;;;;;12.55;5.85;;;17.00;99.90;;;15.05;100.00;100276.03;4950728;28;20170;-84
2022/05/12 00:46:16;;;;;;;12.85;5.95;;;17.00;99.90;;;14.93;100.00;100292.31;4943874;28;20059;-84
2022/05/12 00:48:45;;;;;;;22.30;6.45;;;16.90;99.90;;;14.88;100.00;100289.41;4951006;28;20142;-85
2022/05/12 00:51:17;;;;;;;15.82;5.68;;;16.90;99.90;;;14.90;100.00;100294.66;4951120;28;20508;-85
2022/05/12 00:53:49;;;;;;;15.23;5.95;;;16.70;99.90;;;14.86;100.00;100299.72;4949934;28;20497;-85
2022/05/12 00:56:19;;;;;;;;;;;16.70;99.90;;;14.84;100.00;100301.84;4944076;28;20070;-85
2022/05/12 00:58:48;;;;;;;11.30;5.28;;;16.60;99.90;;;14.77;100.00;100299.13;4965143;28;19923;-85
2022/05/12 01:01:16;;;;;;;13.23;5.78;;;16.60;99.90;;;14.63;100.00;100305.75;4953586;28;20051;-85
2022/05/12 01:03:45;;;;;;;14.38;5.70;;;16.50;99.90;;;14.53;100.00;100317.13;4954522;29;20534;-85
2022/05/12 01:06:14;;;;;;;13.30;4.75;;;16.50;99.90;;;14.57;100.00;100317.56;4954098;28;20049;-85
2022/05/12 01:08:42;;;;;;;10.93;5.57;;;16.50;99.90;;;14.55;100.00;100320.47;4948682;29;20049;-85
2022/05/12 01:11:16;;;;;;;10.65;5.28;;;16.40;99.90;;;14.49;100.00;100329.56;4950155;29;20058;-85
2022/05/12 01:13:56;;;;;;;13.23;5.68;;;16.30;99.90;;;14.39;100.00;100338.22;4954437;28;20574;-85
2022/05/12 01:16:43;;;;;;;10.55;5.05;;;16.20;99.90;;;14.23;100.00;100344.97;4953743;28;20080;-85
2022/05/12 01:19:15;;;;;;;14.75;4.72;;;16.10;99.90;;;14.19;100.00;100348.38;4953922;28;20043;-85
2022/05/12 01:21:43;;;;;;;9.60;4.28;;;16.00;99.90;;;14.08;100.00;100356.16;4954362;28;20040;-84
2022/05/12 01:24:13;;;;;;;10.38;4.75;;;16.00;99.90;;;14.11;100.00;100354.91;4954357;29;20063;-85
2022/05/12 01:26:41;;;;;;;10.07;5.05;;;16.10;99.90;;;14.07;100.00;100359.94;4954310;28;20114;-84
2022/05/12 01:29:09;;;;;;;13.85;4.63;;;15.90;99.90;;;14.00;100.00;100361.84;4946204;28;20086;-85
2022/05/12 01:31:37;;;;;;;12.38;4.63;;;15.80;99.90;;;13.91;100.00;100365.84;4953511;29;20071;-85
2022/05/12 01:34:11;;;;;;;9.52;4.82;;;15.80;99.90;;;13.80;100.00;100366.47;4947329;28;20067;-85
2022/05/12 01:36:39;;;;;;;11.57;4.70;;;15.80;99.90;;;13.82;100.00;100375.31;4933619;29;20509;-85
2022/05/12 01:39:08;;;;;;;10.50;4.88;;;15.70;99.90;;;13.72;100.00;100375.72;4939325;28;20500;-85
2022/05/12 01:41:37;;;;;;;15.65;5.40;;;15.60;99.90;;;13.57;100.00;100373.16;4952610;28;20049;-84
2022/05/12 01:44:05;;;;;;;12.05;4.43;;;15.60;99.90;;;13.47;100.00;100386.41;4953750;28;20500;-84
2022/05/12 01:46:32;;;;;;;14.10;4.50;;;15.60;99.90;;;13.56;100.00;100382.44;4953898;28;20063;-85
2022/05/12 01:48:59;;;;;;;9.98;4.65;;;15.50;99.90;;;13.53;100.00;100388.31;4953474;29;20051;-85
2022/05/12 01:51:28;;;;;;;11.10;4.50;;;15.40;99.90;;;13.51;100.00;100400.50;4968730;28;20075;-85
2022/05/12 01:53:55;;;;;;;14.07;5.05;;;15.30;99.90;;;13.47;100.00;100398.19;4950499;28;20500;-85
2022/05/12 01:56:22;;;;;;;12.68;5.03;;;15.20;99.90;;;13.47;100.00;100408.28;4952217;28;20138;-85
2022/05/12 01:58:51;;;;;;;14.45;5.25;;;15.10;99.90;;;13.48;100.00;100418.19;4967850;28;20055;-85
2022/05/12 02:01:18;;;;;;;10.65;4.88;;;15.00;99.90;;;13.47;100.00;100421.94;4938227;29;20054;-84
2022/05/12 02:03:45;;;;;;;14.23;5.35;;;15.00;99.90;;;13.43;100.00;100431.63;4952762;28;20047;-85
2022/05/12 02:06:12;;;;;;;15.45;5.25;;;15.00;99.90;;;13.36;100.00;100436.22;4953498;28;20119;-85
2022/05/12 02:08:40;;;;;;;10.77;4.75;;;15.00;99.90;;;13.38;100.00;100442.31;4953035;28;20067;-85
2022/05/12 02:11:07;;;;;;;11.43;4.15;;;15.00;99.90;;;13.30;100.00;100441.44;4953026;28;20050;-85
2022/05/12 02:13:34;;;;;;;13.48;3.53;;;15.00;99.90;;;13.21;100.00;100450.84;4952437;28;20039;-85
2022/05/12 02:16:03;;;;;;;8.68;4.20;;;15.00;99.90;;;13.24;100.00;100453.16;4952278;28;20075;-85
2022/05/12 02:18:30;;;;;;;11.07;3.88;;;14.90;99.90;;;13.22;100.00;100449.78;4951972;28;20118;-84
2022/05/12 02:20:58;;;;;;;12.48;4.25;;;14.80;99.90;;;13.01;100.00;100460.84;4953023;28;20059;-85
2022/05/12 02:23:25;;;;;;;9.98;4.28;;;14.80;99.90;;;12.91;100.00;100462.03;4953211;29;20069;-84
2022/05/12 02:25:52;;;;;;;9.27;3.83;;;14.80;99.90;;;13.00;100.00;100470.06;4952242;28;20073;-85
2022/05/12 02:28:20;;;;;;;8.40;3.85;;;14.70;99.90;;;13.03;100.00;100475.97;4951580;29;20102;-84
2022/05/12 02:30:47;;;;;;;9.55;4.40;;;14.50;99.90;;;13.01;100.00;100477.22;4953095;28;20043;-84
2022/05/12 02:33:16;;;;;;;7.68;3.80;;;14.40;99.90;;;12.96;100.00;100468.78;4937323;29;20134;-85
2022/05/12 02:35:43;;;;;;;10.23;4.63;;;14.30;99.90;;;12.96;100.00;100482.44;4963285;23;20502;-92
2022/05/12 02:38:11;;;;;;;9.27;4.03;;;14.30;99.90;;;12.94;100.00;100482.63;4963486;28;20225;-91
2022/05/12 02:40:39;;;;;;;8.88;4.13;;;14.20;99.90;;;12.96;100.00;100490.63;4967787;28;20047;-91
2022/05/12 02:43:23;;;;;;;8.05;4.15;;;14.10;99.90;;;12.89;100.00;100491.44;4956633;28;20069;-91
2022/05/12 02:45:51;;;;;;;9.20;4.35;;;14.10;99.90;;;12.81;100.00;100501.69;4962787;28;20102;-92
2022/05/12 02:48:22;;;;;;;12.77;4.47;;;14.10;99.90;;;12.77;100.00;100495.75;4972987;28;20117;-91
2022/05/12 02:50:51;;;;;;;12.75;5.07;;;14.00;99.90;;;12.75;100.00;100511.50;4955404;28;20856;-91
2022/05/12 02:53:18;;;;;;;9.98;4.10;;;13.90;99.90;;;12.73;100.00;100507.31;4956777;28;20073;-91
2022/05/12 02:55:46;;;;;;;10.63;4.10;;;13.90;99.90;;;12.65;100.00;100511.03;4960729;28;20047;-92
2022/05/12 02:58:14;;;;;;;12.15;4.78;;;13.90;99.90;;;12.64;100.00;100518.38;4952331;29;20066;-91
2022/05/12 03:00:41;;;;;;;8.35;4.13;;;13.90;99.90;;;12.61;100.00;100509.75;4960537;28;20492;-92
2022/05/12 03:03:12;;;;;;;10.73;3.97;;;13.80;99.90;;;12.57;100.00;100514.75;4959946;28;20582;-92
2022/05/12 03:05:42;;;;;;;9.18;4.05;;;13.80;99.90;;;12.52;100.00;100518.06;4957917;28;20047;-91
2022/05/12 03:08:10;;;;;;;12.63;4.45;;;13.70;99.90;;;12.40;100.00;100516.06;4968518;28;20047;-92
2022/05/12 03:10:39;;;;;;;9.60;4.03;;;13.80;99.90;;;12.39;100.00;100522.56;4972816;28;20050;-92
2022/05/12 03:13:07;;;;;;;9.38;3.70;;;13.70;99.90;;;12.43;100.00;100513.81;4957921;28;20066;-91
2022/05/12 03:15:34;;;;;;;12.32;3.92;;;13.60;99.90;;;12.37;100.00;100516.47;4953096;28;20652;-92
2022/05/12 03:18:02;;;;;;;9.75;4.00;;;13.60;99.90;;;12.33;100.00;100529.66;4952765;28;20350;-92
2022/05/12 03:20:33;;;;;;;10.95;3.60;;;13.60;99.90;;;12.30;100.00;100530.06;4969242;28;20058;-92
2022/05/12 03:23:02;;;;;;;7.03;3.70;;;13.50;99.90;;;12.30;100.00;100530.06;4965596;28;20091;-91
2022/05/12 03:25:31;;;;;;;9.00;3.75;;;13.50;99.90;;;12.29;100.00;100533.81;4950912;28;20620;-92
2022/05/12 03:27:59;;;;;;;10.60;4.07;;;13.40;99.90;;;12.29;100.00;100540.09;4951295;28;20150;-91
2022/05/12 03:30:29;;;;;;;10.23;3.65;;;13.40;99.90;;;12.24;100.00;100539.00;4966406;28;20074;-94
2022/05/12 03:32:56;;;;;;;8.38;3.88;;;13.40;99.90;;;12.20;100.00;100545.88;4958168;28;20047;-89
2022/05/12 03:35:25;;;;;;;7.97;3.72;;;13.40;99.90;;;12.18;100.00;100558.88;4953833;28;20043;-94
2022/05/12 03:37:52;;;;;;;8.82;4.15;;;13.30;99.90;;;12.11;100.00;100551.50;4961479;28;20133;-87
2022/05/12 03:40:21;;;;;;;10.48;3.70;;;13.30;99.90;;;12.10;100.00;100560.69;4953149;28;20043;-86
2022/05/12 03:42:50;;;;;;;9.82;4.15;;;13.20;99.90;;;12.11;100.00;100562.41;4955950;28;20117;-86
2022/05/12 03:45:16;;;;;;;15.90;4.38;;;13.20;99.90;;;12.03;100.00;100565.25;4967486;28;20054;-86
2022/05/12 03:47:48;;;;;;;10.57;4.03;;;13.20;99.90;;;12.02;100.00;100571.75;4962239;28;20047;-86
2022/05/12 03:50:19;;;;;;;9.25;4.13;;;13.10;99.90;;;11.93;100.00;100575.59;4957823;28;20047;-86
2022/05/12 03:52:47;;;;;;;10.63;3.92;;;13.10;99.90;;;11.95;100.00;100562.63;4982532;28;20074;-85
2022/05/12 03:55:16;;;;;;;10.00;4.32;;;13.10;99.90;;;11.91;100.00;100577.69;4955822;28;20106;-84
2022/05/12 03:57:46;;;;;;;7.30;3.92;;;13.10;99.90;;;11.86;100.00;100580.09;4956596;28;20067;-85
2022/05/12 04:00:19;;;;;;;10.68;4.03;;;13.10;99.90;;;11.80;100.00;100586.34;4965385;28;20073;-84
2022/05/12 04:02:47;;;;;;;11.25;4.43;;;13.10;99.90;;;11.84;100.00;100584.91;4965174;28;20098;-84
2022/05/12 04:05:15;;;;;;;8.43;4.47;;;13.10;99.90;;;11.92;100.00;100584.84;4965966;28;20043;-84
2022/05/12 04:07:44;;;;;;;8.40;4.32;;;13.10;99.90;;;11.93;100.00;100595.53;4962124;28;20064;-84
2022/05/12 04:10:13;;;;;;;7.72;4.55;;;13.10;99.90;;;11.90;100.00;100600.56;4955245;28;20051;-84
2022/05/12 04:12:41;;;;;;;9.73;4.25;;;13.10;99.90;;;11.83;100.00;100599.59;4955895;28;20118;-84
2022/05/12 04:15:12;;;;;;;10.25;4.55;;;13.10;99.90;;;11.83;100.00;100605.06;4968150;28;20081;-85
2022/05/12 04:17:39;;;;;;;11.40;4.72;;;13.10;99.90;;;11.82;100.00;100611.53;4961904;28;20051;-85
2022/05/12 04:20:09;;;;;;;9.00;4.60;;;13.10;99.90;;;11.84;100.00;100612.19;4959166;28;20047;-84
2022/05/12 04:22:37;;;;;;;10.70;4.82;;;13.10;99.90;;;11.83;100.00;100611.34;4965058;28;20050;-84
2022/05/12 04:25:04;;;;;;;10.55;5.72;;;13.10;99.90;;;11.82;100.00;100614.25;4959235;28;20051;-84
2022/05/12 04:27:36;;;;;;;10.48;5.10;;;13.10;99.90;;;11.84;100.00;100618.50;4960962;28;20094;-85
2022/05/12 04:30:04;;;;;;;12.25;5.50;;;13.20;99.90;;;11.88;100.00;100622.53;4966284;28;20051;-85
2022/05/12 04:32:33;;;;;;;9.48;4.82;;;13.20;99.90;;;11.91;100.00;100618.59;4969247;28;20138;-84
2022/05/12 04:35:12;;;;;;;10.35;4.90;;;13.20;99.90;;;11.88;100.00;100629.84;4953505;28;20537;-85
2022/05/12 04:37:44;;;;;;;9.55;4.80;;;13.30;99.90;;;11.89;100.00;100631.53;4969277;28;20435;-85
2022/05/12 04:40:16;;;;;;;11.65;5.60;;;13.30;99.90;;;11.84;100.00;100634.00;4958864;28;20054;-85
2022/05/12 04:42:44;;;;;;;11.60;5.35;;;13.40;99.90;;;11.92;100.00;100636.66;4960626;28;20122;-86
2022/05/12 04:45:13;;;;;;;12.65;5.95;;;13.40;99.90;;;11.89;100.00;100640.59;4970222;28;20039;-91
2022/05/12 04:47:43;;;;;;;14.75;5.85;;;13.50;99.90;;;11.85;100.00;100647.44;4952259;28;20055;-88
2022/05/12 04:50:16;;;;;;;13.15;5.78;;;13.60;99.90;;;11.76;100.00;100648.56;4969386;28;20250;-88
2022/05/12 04:52:43;;;;;;;13.98;6.55;;;13.70;99.90;;;11.75;100.00;100649.63;4954858;28;20047;-87
2022/05/12 04:55:11;;;;;;;11.68;5.57;;;13.80;99.90;;;11.72;100.00;100653.56;4956222;28;20050;-86
2022/05/12 04:57:39;;;;;;;11.20;5.25;;;13.90;99.90;;;11.93;100.00;100660.16;4958738;28;20042;-85
2022/05/12 05:00:13;;;;;;;13.88;5.72;;;13.90;99.90;;;11.99;100.00;100664.84;4954315;28;20043;-86
2022/05/12 05:02:42;;;;;;;12.18;5.60;;;13.90;99.90;;;12.08;100.00;100666.44;4961210;28;20109;-87
2022/05/12 05:05:11;;;;;;;13.48;6.07;;;13.90;99.90;;;12.20;100.00;100665.94;4962460;28;20510;-88
2022/05/12 05:07:42;;;;;;;10.70;5.53;;;13.90;99.90;;;12.28;100.00;100669.41;4962141;28;20420;-89
2022/05/12 05:10:12;;;;;;;35.20;6.82;;;14.00;99.90;;;12.37;100.00;100666.56;4958492;28;20471;-86
2022/05/12 05:12:40;;;;;;;15.45;5.78;;;14.00;99.90;;;12.42;100.00;100678.59;4961884;28;20038;-86
2022/05/12 05:15:09;;;;;;;14.43;6.05;;;14.00;99.90;;;12.41;100.00;100685.06;4958751;28;20049;-86
2022/05/12 05:17:57;;;;;;;13.00;6.22;;;14.10;99.90;;;12.46;100.00;100687.25;4963189;28;20046;-86
2022/05/12 05:20:38;;;;;;;15.07;6.78;;;14.10;99.90;;;12.48;100.00;100686.00;4964865;28;20051;-87
2022/05/12 05:23:22;;;;;;;13.82;6.93;;;14.20;99.90;;;12.47;100.00;100695.25;4970781;28;20047;-86
2022/05/12 05:25:50;;;;;;;15.40;6.93;;;14.20;99.90;;;12.52;100.00;100698.22;4964777;28;20675;-86
2022/05/12 05:28:17;;;;;;;16.17;7.03;;;14.20;99.90;;;12.58;100.00;100691.16;4952517;28;20074;-86
2022/05/12 05:30:45;;;;;;;17.90;7.78;;;14.20;99.90;;;12.66;100.00;100692.91;4960900;28;20094;-85
2022/05/12 05:33:12;;;;;;;16.63;7.60;;;14.30;99.90;;;12.72;100.00;100689.44;4960842;28;20142;-86
2022/05/12 05:35:41;;;;;;;16.23;7.15;;;14.40;99.90;;;12.79;100.00;100698.50;4950946;28;20464;-86
2022/05/12 05:38:09;;;;;;;14.20;7.60;;;14.50;99.90;;;12.84;100.00;100706.97;4953758;29;20094;-85
2022/05/12 05:40:36;;;;;;;12.18;6.90;;;14.60;99.90;;;12.85;100.00;100719.59;4950155;28;20075;-87
2022/05/12 05:43:04;;;;;;;13.07;6.38;;;14.70;99.90;;;12.85;100.00;100725.06;4964146;28;20061;-86
2022/05/12 05:45:33;;;;;;;13.18;6.72;;;14.80;99.90;;;12.89;100.00;100731.81;4971964;28;20141;-86
2022/05/12 05:48:05;;;;;;;15.85;8.13;;;14.80;99.90;;;12.96;100.00;100731.03;4952991;28;20079;-86
2022/05/12 05:53:23;;;;;;;13.23;7.60;;;14.90;99.90;;;13.00;100.00;100726.88;4966096;28;20047;-86
2022/05/12 05:53:27;;;;;;;14.20;7.55;;;14.90;99.90;;;13.02;100.00;100730.25;4956398;28;20047;-86
2022/05/12 05:56:00;;;;;;;15.75;7.90;;;15.10;99.90;;;13.06;100.00;100737.00;4940119;28;20656;-85
2022/05/12 05:58:29;;;;;;;14.27;7.65;;;15.10;99.90;;;13.10;100.00;100736.44;4956420;28;20475;-86
2022/05/12 06:00:57;;;;;;;17.63;7.40;;;15.20;99.90;;;13.20;100.00;100733.38;4956980;28;20035;-85
2022/05/12 06:03:25;;;;;;;14.70;7.28;;;15.30;99.90;;;13.29;100.00;100743.13;4947455;28;20047;-86
2022/05/12 06:05:53;;;;;;;14.80;7.05;;;15.30;99.90;;;13.40;100.00;100746.38;4948177;28;20048;-86
2022/05/12 06:08:22;;;;;;;14.73;5.78;;;15.40;99.90;;;13.48;100.00;100749.00;4949639;28;20047;-86
2022/05/12 06:10:50;;;;;;;13.10;6.97;;;15.50;99.90;;;13.57;100.00;100750.53;4952729;28;20045;-86
2022/05/12 06:13:18;;;;;;;17.65;7.28;;;15.60;99.90;;;13.69;100.00;100746.22;4949542;28;20058;-86
2022/05/12 06:15:45;;;;;;;14.48;6.60;;;15.70;99.90;;;13.79;100.00;100747.75;4953765;28;20054;-86
2022/05/12 06:18:16;;;;;;;18.02;7.07;;;15.80;99.90;;;13.83;100.00;100749.03;4951422;28;20051;-85
2022/05/12 06:20:45;;;;;;;17.45;6.85;;;15.90;99.90;;;13.91;100.00;100756.25;4952244;28;20057;-85
2022/05/12 06:23:14;;;;;;;17.98;6.55;;;16.10;99.90;;;13.95;100.00;100757.53;4949972;28;20047;-84
2022/05/12 06:25:41;;;;;;;13.43;6.85;;;16.10;99.90;;;14.04;100.00;100765.38;4960225;28;20046;-85
2022/05/12 06:28:10;;;;;;;12.10;5.82;;;16.20;99.90;;;14.13;100.00;100770.69;4954204;28;20054;-85
2022/05/12 06:30:39;;;;;;;14.30;6.28;;;16.30;99.90;;;14.19;100.00;100775.38;4960527;28;20043;-85
2022/05/12 06:33:07;;;;;;;13.88;5.85;;;16.40;99.90;;;14.24;100.00;100778.31;4941907;28;20046;-85
2022/05/12 06:35:35;;;;;;;14.95;5.70;;;16.50;99.90;;;14.31;100.00;100783.84;4952859;28;20043;-85
2022/05/12 06:38:02;;;;;;;9.93;5.15;;;16.60;99.90;;;14.35;100.00;100775.00;4962974;28;20078;-85
2022/05/12 06:40:29;;;;;;;11.85;5.07;;;16.70;99.90;;;14.40;100.00;100777.16;4966230;28;20043;-85
2022/05/12 06:42:58;;;;;;;11.68;4.97;;;16.70;99.90;;;14.45;100.00;100780.97;4967088;28;20140;-84
2022/05/12 06:45:28;;;;;;;12.82;5.45;;;16.80;99.90;;;14.53;100.00;100781.84;4952162;28;20050;-85
2022/05/12 06:47:55;;;;;;;13.68;6.13;;;16.80;99.90;;;14.59;100.00;100778.31;4953508;28;20508;-85
2022/05/12 06:50:28;;;;;;;17.25;6.00;;;16.90;99.90;;;14.71;100.00;100786.78;4968246;28;20106;-84
2022/05/12 06:52:56;;;;;;;13.63;5.60;;;17.00;99.90;;;14.76;100.00;100793.34;4957136;28;20043;-85
2022/05/12 06:55:27;;;;;;;16.45;6.07;;;17.00;99.90;;;14.86;100.00;100791.03;4961930;28;20047;-85
2022/05/12 06:57:54;;;;;;;15.50;6.03;;;17.10;99.90;;;14.93;100.00;100793.81;4951343;28;20492;-84
2022/05/12 07:00:22;;;;;;;17.80;6.63;;;17.10;99.90;;;15.01;100.00;100795.53;4972152;28;20051;-84
2022/05/12 07:02:52;;;;;;;13.30;6.32;;;17.20;99.90;;;15.15;100.00;100790.91;4949664;28;20130;-85
2022/05/12 07:05:24;;;;;;;14.82;5.70;;;17.20;99.90;;;15.35;100.00;100790.97;4964108;28;20457;-86
2022/05/12 07:07:52;;;;;;;16.67;5.50;;;17.40;99.90;;;15.45;100.00;100791.38;4932191;29;20580;-85
2022/05/12 07:10:23;;;;;;;21.00;6.30;;;17.50;99.90;;;15.51;100.00;100795.16;4957969;28;20551;-86
2022/05/12 07:12:51;;;;;;;;;;;17.60;99.90;;;15.51;100.00;100801.50;4949524;28;20093;-85
2022/05/12 07:15:20;;;;;;;20.40;7.88;;;17.60;99.90;;;15.40;100.00;100796.63;4950297;28;19927;-85
2022/05/12 07:17:48;;;;;;;17.00;7.93;;;17.70;99.90;;;15.42;100.00;100792.66;4957625;28;20035;-86
2022/05/12 07:28:34;;;;;;;18.80;9.13;;;18.10;99.90;;;15.66;100.00;100792.22;4958530;28;20102;-85
2022/05/12 07:31:02;;;;;;;14.48;7.22;;;18.20;99.90;;;15.74;100.00;100797.53;4950153;28;20121;-85
2022/05/12 07:33:29;;;;;;;17.55;6.25;;;18.20;99.90;;;15.75;100.00;100804.72;4965983;28;20432;-85
2022/05/12 07:35:58;;;;;;;10.82;4.57;;;18.30;99.90;;;15.78;100.00;100812.50;4961017;28;20071;-86
2022/05/12 07:38:26;;;;;;;13.02;4.30;;;18.30;99.00;;;15.73;100.00;100804.06;4950199;28;20457;-86
2022/05/12 07:40:54;;;;;;;9.65;3.60;;;18.20;99.90;;;15.77;100.00;100810.84;4950662;28;20861;-86
2022/05/12 07:43:22;;;;;;;10.70;3.88;;;18.30;99.90;;;15.86;99.82;100820.53;4952910;28;20568;-85
2022/05/12 07:45:50;;;;;;;11.85;4.63;;;18.40;98.90;;;15.91;100.00;100823.47;4974397;28;20570;-86
2022/05/12 07:48:19;;;;;;;11.95;4.65;;;18.50;99.00;;;15.88;98.94;100818.44;4958940;28;20051;-85
2022/05/12 07:50:47;;;;;;;12.57;5.53;;;18.50;97.50;;;15.90;98.16;100824.56;4960121;28;20045;-86
2022/05/12 07:53:15;;;;;;;13.27;5.63;;;18.50;98.10;;;15.81;98.25;100829.41;4951571;28;20039;-85
2022/05/12 07:55:43;;;;;;;11.23;5.85;;;18.40;98.00;;;15.89;98.92;100825.59;4952981;28;20043;-86
2022/05/12 07:58:12;;;;;;;14.73;6.15;;;18.40;98.70;;;15.96;98.58;100826.44;4951919;28;20515;-85
2022/05/12 08:00:40;;;;;;;11.30;6.00;;;18.50;98.40;;;16.01;98.91;100829.41;4967691;28;20047;-85
2022/05/12 08:03:08;;;;;;;14.30;6.05;;;18.60;98.50;;;15.93;97.35;100832.34;4948552;28;20051;-86
2022/05/12 08:05:36;;;;;;;12.60;5.60;;;18.50;97.80;;;15.85;100.00;100832.56;4951738;28;20109;-86
2022/05/12 08:08:04;;;;;;;16.92;5.85;;;18.30;99.90;;;15.80;100.00;100832.34;4947331;28;20043;-86
2022/05/12 08:10:33;;;;;;;13.82;6.25;;;18.20;99.50;;;15.84;100.00;100836.38;4948512;28;20138;-85
2022/05/12 08:13:01;;;;;;;14.77;6.25;;;18.30;99.80;;;15.83;99.59;100840.16;4962704;28;20145;-85
2022/05/12 08:15:28;;;;;;;16.80;5.38;;;18.20;99.30;;;15.72;96.30;100843.50;4953267;28;20055;-86
2022/05/12 08:17:57;;;;;;;13.32;5.20;;;18.10;98.10;;;15.72;96.69;100844.34;4942262;28;20416;-84
2022/05/12 08:20:25;;;;;;;13.80;5.40;;;18.20;97.40;;;15.77;98.40;100844.59;4951447;28;20130;-85
2022/05/12 08:22:53;;;;;;;15.40;5.97;;;18.20;98.60;;;15.80;97.11;100848.81;4970484;28;20109;-86
2022/05/12 08:25:20;;;;;;;11.25;5.35;;;18.10;97.80;;;15.80;96.53;100846.06;4950964;28;20090;-85
2022/05/12 08:27:50;;;;;;;12.02;5.90;;;18.10;97.70;;;15.86;96.82;100853.47;4943308;28;20067;-85
2022/05/12 08:30:19;;;;;;;14.75;5.85;;;18.10;98.30;;;15.86;96.76;100852.63;4948832;28;20042;-86
2022/05/12 08:32:46;;;;;;;13.00;5.70;;;18.20;98.10;;;15.93;97.05;100854.28;4948605;28;20129;-86
2022/05/12 08:35:14;;;;;;;15.88;6.25;;;18.30;97.40;;;15.94;95.27;100864.25;4949193;28;20043;-84
2022/05/12 08:37:42;;;;;;;16.15;6.43;;;18.30;97.10;;;15.89;95.56;100853.03;4966722;23;20079;-88
2022/05/12 08:40:20;;;;;;;10.15;5.18;;;18.30;97.00;;;15.96;94.73;100859.38;4956188;28;20147;-88
2022/05/12 08:42:49;;;;;;;11.68;5.65;;;18.30;96.80;;;16.03;97.40;100862.13;4959337;28;20043;-89
2022/05/12 08:45:21;;;;;;;14.82;6.72;;;18.40;97.50;;;16.08;95.86;100856.84;4970343;28;20034;-89
2022/05/12 08:47:51;;;;;;;12.30;6.70;;;18.40;97.10;;;16.08;96.52;100856.84;4969478;28;20042;-88
2022/05/12 08:50:23;;;;;;;13.73;6.45;;;18.50;97.50;;;16.18;95.99;100860.00;4961939;28;20126;-88
2022/05/12 08:52:57;;;;;;;11.82;6.50;;;18.60;96.90;;;16.29;95.17;100869.47;4969619;28;20054;-89
2022/05/12 08:55:30;;;;;;;13.38;6.93;;;18.70;96.80;;;16.34;92.50;100855.97;4968477;28;20050;-88
2022/05/12 08:58:03;;;;;;;13.00;6.90;;;18.70;94.90;;;16.35;93.98;100852.13;4970003;28;20043;-88
2022/05/12 09:00:41;;;;;;;16.00;6.07;;;18.70;96.10;;;16.44;93.22;100857.41;4970088;28;20054;-88
2022/05/12 09:03:18;;;;;;;14.95;6.28;;;18.80;95.60;;;16.36;91.51;100853.84;4964365;28;20038;-87
2022/05/12 09:05:54;;;;;;;11.13;6.82;;;18.80;94.40;;;16.40;90.38;100849.59;4970213;28;20043;-88
2022/05/12 09:08:34;;;;;;;12.75;5.90;;;18.90;93.40;;;16.47;89.25;100848.72;4964460;28;20035;-88
2022/05/12 09:11:06;;;;;;;8.73;5.20;;;18.90;93.10;;;16.53;88.46;100854.22;4969539;28;20042;-89
2022/05/12 09:13:41;;;;;;;12.63;6.00;;;19.00;92.30;;;16.55;90.93;100857.59;4964362;28;20047;-88
2022/05/12 09:16:16;;;;;;;11.77;5.90;;;19.10;93.90;;;16.57;89.24;100860.13;4967952;28;20139;-88
2022/05/12 09:18:44;;;;;;;8.88;5.10;;;19.10;93.50;;;16.52;87.34;100860.75;4968216;28;20133;-88
2022/05/12 09:21:14;;;;;;;11.15;5.28;;;19.00;92.10;;;16.41;90.57;100855.91;4966541;28;20039;-88
2022/05/12 09:23:42;;;;;;;10.48;5.35;;;18.90;93.70;;;16.44;90.73;100861.00;4972983;28;20082;-88
2022/05/12 09:26:39;;;;;;;10.18;5.53;;;18.90;93.90;;;16.46;92.09;100858.03;4973212;28;20137;-87
2022/05/12 09:29:17;;;;;;;13.27;5.75;;;18.90;94.50;;;16.51;89.77;100855.50;4960030;28;20134;-89
2022/05/12 09:31:48;;;;;;;10.80;5.90;;;18.80;94.20;;;16.51;84.51;100866.50;4967742;28;20051;-87
2022/05/12 09:34:26;;;;;;;13.32;5.72;;;18.80;91.00;;;16.48;87.79;100862.25;4973620;28;20046;-88
2022/05/12 09:36:53;;;;;;;8.65;5.00;;;18.80;92.20;;;16.41;84.89;100850.44;4970061;28;20097;-88
2022/05/12 09:39:42;;;;;;;13.75;5.78;;;18.90;91.50;;;16.46;87.38;100856.13;4970887;28;20051;-88
2022/05/12 09:42:18;;;;;;;11.20;5.70;;;18.90;91.70;;;16.45;89.66;100856.34;4961524;28;20039;-88
2022/05/12 09:44:57;;;;;;;11.68;5.97;;;19.00;93.20;;;16.45;84.24;100861.84;4973661;28;20504;-88
2022/05/12 09:47:25;;;;;;;9.23;5.10;;;19.00;90.20;;;16.45;84.74;100856.34;4969662;28;20053;-88
2022/05/12 09:50:16;;;;;;;12.38;5.45;;;19.00;89.80;;;16.42;87.10;100852.97;4972767;28;20082;-88
2022/05/12 09:52:44;;;;;;;13.63;5.60;;;19.00;91.50;;;16.49;86.09;100852.13;4969182;28;20035;-88
2022/05/12 09:55:17;;;;;;;9.60;5.03;;;19.00;91.10;;;16.52;87.10;100846.19;4969992;28;20035;-88
2022/05/12 09:57:53;;;;;;;9.48;5.47;;;19.10;90.90;;;16.49;86.20;100857.63;4982890;28;20976;-88
2022/05/12 10:00:37;;;;;;;9.20;4.80;;;19.00;91.40;;;16.46;85.33;100855.28;4962174;28;20097;-87
2022/05/12 10:09:08;;;;;;;9.65;4.78;;;19.00;92.40;;;16.58;86.82;100842.56;4970783;28;20051;-88
2022/05/12 10:11:45;;;;;;;7.70;4.50;;;19.00;92.30;;;16.54;85.51;100838.56;4972632;28;20629;-89
2022/05/12 10:14:25;;;;;;;8.68;4.68;;;19.00;90.00;;;16.58;84.05;100840.69;4973640;28;20046;-88
2022/05/12 10:16:57;;;;;;;7.55;4.15;;;19.00;90.50;;;16.57;84.84;100835.41;4972692;28;20089;-88
2022/05/12 10:19:26;;;;;;;7.88;4.20;;;19.00;90.00;;;16.54;81.02;100838.56;4972478;28;20097;-88
2022/05/12 10:22:05;;;;;;;10.50;4.18;;;19.00;88.50;;;16.55;80.51;100835.59;4972556;28;20034;-87
2022/05/12 10:24:43;;;;;;;10.02;4.82;;;19.00;87.80;;;16.65;80.39;100846.16;4971215;28;20137;-87
2022/05/12 10:27:17;;;;;;;7.28;4.43;;;19.00;87.40;;;16.63;82.72;100848.28;4972571;28;20050;-87
2022/05/12 10:29:59;;;;;;;10.20;4.72;;;19.00;89.50;;;16.60;79.44;100848.69;4971393;28;20050;-88